createdAt,value
2023-05-15T00:00:37.426Z,87.89
2023-05-15T00:05:40.481Z,87.84
2023-05-15T00:10:59.770Z,88.01
2023-05-15T00:16:03.542Z,88.59
2023-05-15T00:21:06.480Z,88.35
2023-05-15T00:26:10.852Z,88.32
2023-05-15T00:31:14.918Z,87.74
2023-05-15T00:36:18.339Z,87.96
2023-05-15T00:41:24.133Z,87.71
2023-05-15T00:46:28.475Z,88.29
2023-05-15T00:51:31.515Z,88.38
2023-05-15T00:56:36.337Z,88.82
2023-05-15T01:01:39.267Z,88.62
2023-05-15T01:06:42.213Z,89.16
2023-05-15T01:11:48.559Z,89.37
2023-05-15T01:16:51.513Z,89.51
2023-05-15T01:22:19.342Z,90.19
2023-05-15T01:27:28.300Z,89.89
2023-05-15T01:32:39.332Z,89.83
2023-05-15T01:37:46.455Z,89.62
2023-05-15T01:42:56.280Z,91.83
2023-05-15T01:48:01.978Z,91.44
2023-05-15T01:53:06.306Z,90.93
2023-05-15T01:58:11.168Z,90.98
2023-05-15T02:03:14.589Z,91.31
2023-05-15T02:08:17.761Z,91.15
2023-05-15T02:13:23.494Z,91.56
2023-05-15T02:18:28.383Z,91.35
2023-05-15T02:23:33.898Z,91.82
2023-05-15T02:28:46.317Z,92.96
2023-05-15T02:33:57.068Z,94.15
2023-05-15T02:39:00.678Z,94.33
2023-05-15T02:44:05.690Z,92.76
2023-05-15T02:49:09.455Z,93.30
2023-05-15T02:54:12.749Z,92.77
2023-05-15T02:59:19.836Z,92.24
2023-05-15T03:04:22.909Z,92.18
2023-05-15T03:09:26.442Z,92.35
2023-05-15T03:14:30.783Z,92.31
2023-05-15T03:19:33.755Z,92.15
2023-05-15T03:24:36.757Z,93.17
2023-05-15T03:29:41.019Z,92.22
2023-05-15T03:34:43.899Z,91.70
2023-05-15T03:39:46.813Z,91.91
2023-05-15T03:44:51.393Z,91.45
2023-05-15T03:49:54.375Z,91.49
2023-05-15T03:54:57.301Z,89.35
2023-05-15T04:00:07.442Z,88.51
2023-05-15T04:05:30.342Z,88.76
2023-05-15T04:10:33.792Z,89.22
2023-05-15T04:15:38.454Z,89.47
2023-05-15T04:20:41.405Z,90.29
2023-05-15T04:25:46.771Z,90.92
2023-05-15T04:30:51.184Z,90.30
2023-05-15T04:35:54.311Z,90.00
2023-05-15T04:40:57.180Z,90.77
2023-05-15T04:46:01.473Z,91.08
2023-05-15T04:51:04.376Z,90.58
2023-05-15T04:56:07.398Z,90.11
2023-05-15T05:01:11.679Z,89.96
2023-05-15T05:06:14.663Z,90.38
2023-05-15T05:11:17.574Z,90.25
2023-05-15T05:16:21.880Z,90.35
2023-05-15T05:21:24.776Z,91.44
2023-05-15T05:26:28.227Z,92.14
2023-05-15T05:31:32.545Z,94.07
2023-05-15T05:36:36.962Z,93.15
2023-05-15T05:41:39.848Z,91.24
2023-05-15T05:46:45.323Z,90.06
2023-05-15T05:51:48.462Z,88.92
2023-05-15T05:56:51.384Z,88.13
2023-05-15T06:01:55.663Z,87.10
2023-05-15T06:06:58.767Z,85.27
2023-05-15T06:12:04.687Z,84.61
2023-05-15T06:17:09.096Z,83.57
2023-05-15T06:22:12.136Z,82.15
2023-05-15T06:27:15.032Z,80.44
2023-05-15T06:32:19.318Z,80.15
2023-05-15T06:37:22.324Z,78.33
2023-05-15T06:42:25.380Z,78.62
2023-05-15T06:47:29.805Z,79.22
2023-05-15T06:52:32.706Z,78.61
2023-05-15T06:57:35.697Z,79.37
2023-05-15T07:02:40.098Z,78.18
2023-05-15T07:07:43.779Z,76.88
2023-05-15T07:12:46.746Z,75.18
2023-05-15T07:17:51.113Z,73.68
2023-05-15T07:22:56.706Z,73.00
2023-05-15T07:27:59.806Z,72.17
2023-05-15T07:33:04.506Z,73.13
2023-05-15T07:38:07.563Z,75.04
2023-05-15T07:43:10.488Z,74.44
2023-05-15T07:48:19.133Z,73.36
2023-05-15T07:53:22.055Z,72.49
2023-05-15T07:58:25.037Z,74.70
2023-05-15T08:03:29.432Z,71.66
2023-05-15T08:08:32.747Z,70.68
2023-05-15T08:13:35.709Z,71.69
2023-05-15T08:18:39.970Z,71.04
2023-05-15T08:23:42.950Z,72.50
2023-05-15T08:28:45.881Z,70.84
2023-05-15T08:33:50.141Z,73.96
2023-05-15T08:38:53.037Z,73.76
2023-05-15T08:43:58.865Z,72.97
2023-05-15T08:49:06.223Z,71.39
2023-05-15T08:54:10.187Z,75.16
2023-05-15T08:59:13.079Z,73.84
2023-05-15T09:04:17.328Z,72.83
2023-05-15T09:09:21.369Z,75.12
2023-05-15T09:14:24.256Z,75.69
2023-05-15T09:19:29.110Z,75.43
2023-05-15T09:24:32.149Z,70.19
2023-05-15T09:29:37.059Z,69.39
2023-05-15T09:34:42.699Z,67.54
2023-05-15T09:39:46.296Z,66.12
2023-05-15T09:44:49.198Z,64.75
2023-05-15T09:49:53.851Z,64.04
2023-05-15T09:54:58.185Z,66.61
2023-05-15T10:00:05.230Z,66.17
2023-05-15T10:05:42.529Z,65.50
2023-05-15T10:10:49.062Z,67.19
2023-05-15T10:15:54.181Z,66.08
2023-05-15T10:21:04.005Z,61.96
2023-05-15T10:26:15.342Z,61.86
2023-05-15T10:31:19.896Z,58.76
2023-05-15T10:36:25.315Z,57.23
2023-05-15T10:41:29.977Z,58.89
2023-05-15T10:46:35.894Z,59.50
2023-05-15T10:51:40.739Z,55.80
2023-05-15T10:56:43.789Z,58.08
2023-05-15T11:01:47.147Z,53.43
2023-05-15T11:06:52.466Z,52.27
2023-05-15T11:11:58.017Z,52.45
2023-05-15T11:17:04.072Z,54.94
2023-05-15T11:22:30.715Z,56.89
2023-05-15T11:27:39.334Z,56.21
2023-05-15T11:32:44.048Z,58.85
2023-05-15T11:37:50.536Z,65.99
2023-05-15T11:43:05.710Z,71.43
2023-05-15T11:48:13.648Z,72.53
2023-05-15T11:53:19.685Z,76.04
2023-05-15T11:58:24.414Z,71.74
2023-05-15T12:03:33.455Z,79.79
2023-05-15T12:08:38.656Z,84.48
2023-05-15T12:13:41.606Z,83.41
2023-05-15T12:18:44.510Z,80.36
2023-05-15T12:24:06.286Z,76.37
2023-05-15T12:29:10.745Z,69.43
2023-05-15T12:34:13.779Z,68.70
2023-05-15T12:39:18.282Z,64.20
2023-05-15T12:44:21.876Z,59.27
2023-05-15T12:49:24.904Z,51.81
2023-05-15T12:54:29.228Z,57.96
2023-05-15T12:59:32.616Z,57.64
2023-05-15T13:04:35.550Z,53.95
2023-05-15T13:09:39.895Z,48.93
2023-05-15T13:14:43.374Z,49.60
2023-05-15T13:19:46.339Z,48.46
2023-05-15T13:24:52.829Z,45.12
2023-05-15T13:29:55.982Z,44.36
2023-05-15T13:34:59.707Z,45.15
2023-05-15T13:40:06.653Z,43.91
2023-05-15T13:45:10.995Z,44.41
2023-05-15T13:50:16.632Z,42.32
2023-05-15T13:55:22.994Z,44.50
2023-05-15T14:00:26.545Z,42.84
2023-05-15T14:05:29.785Z,41.92
2023-05-15T14:10:34.994Z,46.10
2023-05-15T14:15:37.916Z,43.04
2023-05-15T14:20:40.849Z,41.97
2023-05-15T14:25:45.134Z,42.21
2023-05-15T14:30:48.004Z,44.82
2023-05-15T14:35:50.910Z,51.43
2023-05-15T14:40:55.529Z,51.96
2023-05-15T14:45:58.464Z,54.82
2023-05-15T14:51:01.718Z,54.25
2023-05-15T14:56:06.612Z,54.06
2023-05-15T15:01:09.871Z,51.51
2023-05-15T15:06:13.128Z,52.40
2023-05-15T15:11:17.404Z,52.76
2023-05-15T15:16:20.446Z,50.04
2023-05-15T15:21:23.397Z,50.17
2023-05-15T15:26:27.786Z,49.27
2023-05-15T15:31:31.765Z,46.46
2023-05-15T15:36:37.479Z,48.00
2023-05-15T15:41:41.803Z,46.80
2023-05-15T15:46:44.669Z,46.11
2023-05-15T15:51:47.631Z,50.02
2023-05-15T15:56:52.519Z,53.36
2023-05-15T16:01:55.715Z,59.61
2023-05-15T16:06:58.591Z,66.05
2023-05-15T16:12:03.656Z,67.94
2023-05-15T16:17:06.601Z,69.20
2023-05-15T16:22:09.600Z,68.78
2023-05-15T16:27:13.847Z,67.32
2023-05-15T16:32:16.733Z,62.02
2023-05-15T16:37:19.691Z,61.10
2023-05-15T16:42:23.924Z,61.65
2023-05-15T16:47:26.942Z,60.97
2023-05-15T16:52:29.969Z,61.23
2023-05-15T16:57:34.205Z,61.93
2023-05-15T17:02:37.372Z,61.73
2023-05-15T17:07:41.019Z,60.94
2023-05-15T17:12:45.909Z,61.92
2023-05-15T17:17:48.847Z,61.65
2023-05-15T17:22:51.853Z,61.33
2023-05-15T17:27:56.134Z,60.42
2023-05-15T17:33:00.266Z,60.42
2023-05-15T17:38:03.253Z,58.94
2023-05-15T17:43:09.814Z,58.73
2023-05-15T17:48:12.858Z,58.54
2023-05-15T17:53:16.486Z,59.91
2023-05-15T17:58:21.259Z,60.89
2023-05-15T18:03:24.393Z,61.86
2023-05-15T18:08:27.404Z,62.57
2023-05-15T18:13:31.662Z,63.16
2023-05-15T18:18:35.969Z,64.72
2023-05-15T18:23:38.923Z,63.87
2023-05-15T18:28:43.224Z,64.91
2023-05-15T18:33:46.769Z,64.72
2023-05-15T18:38:49.748Z,65.11
2023-05-15T18:43:53.970Z,65.83
2023-05-15T18:48:56.977Z,65.42
2023-05-15T18:53:59.832Z,66.51
2023-05-15T18:59:04.128Z,65.84
2023-05-15T19:04:07.091Z,66.27
2023-05-15T19:09:10.569Z,66.13
2023-05-15T19:14:15.713Z,66.48
2023-05-15T19:19:19.002Z,67.53
2023-05-15T19:24:22.143Z,66.74
2023-05-15T19:29:26.396Z,65.15
2023-05-15T19:34:29.440Z,65.30
2023-05-15T19:39:33.658Z,65.70
2023-05-15T19:44:37.918Z,65.65
2023-05-15T19:49:40.835Z,65.76
2023-05-15T19:54:44.313Z,65.66
2023-05-15T19:59:48.654Z,65.32
2023-05-15T20:04:51.802Z,65.08
2023-05-15T20:09:56.247Z,65.96
2023-05-15T20:15:00.740Z,66.01
2023-05-15T20:20:08.100Z,64.58
2023-05-15T20:25:11.141Z,65.06
2023-05-15T20:30:15.629Z,64.59
2023-05-15T20:35:18.584Z,64.11
2023-05-15T20:40:23.003Z,64.44
2023-05-15T20:45:27.945Z,64.36
2023-05-15T20:50:30.846Z,66.21
2023-05-15T20:55:33.777Z,65.97
2023-05-15T21:00:38.136Z,66.15
2023-05-15T21:05:40.998Z,66.76
2023-05-15T21:10:43.911Z,67.64
2023-05-15T21:15:48.209Z,68.09
2023-05-15T21:20:51.710Z,67.98
2023-05-15T21:25:54.582Z,68.78
2023-05-15T21:31:00.523Z,69.07
2023-05-15T21:36:03.495Z,69.90
2023-05-15T21:41:06.529Z,69.75
2023-05-15T21:46:10.881Z,70.88
2023-05-15T21:51:13.807Z,70.92
2023-05-15T21:56:16.724Z,70.98
2023-05-15T22:01:21.104Z,71.81
2023-05-15T22:06:24.156Z,72.22
2023-05-15T22:11:27.195Z,72.50
2023-05-15T22:16:31.462Z,72.62
2023-05-15T22:21:34.515Z,72.38
2023-05-15T22:26:37.348Z,72.74
2023-05-15T22:31:41.642Z,72.49
2023-05-15T22:36:44.926Z,73.42
2023-05-15T22:41:47.948Z,73.99
2023-05-15T22:46:52.273Z,73.95
2023-05-15T22:51:55.912Z,74.15
2023-05-15T22:56:58.796Z,74.57
2023-05-15T23:02:03.934Z,74.27
2023-05-15T23:07:06.909Z,75.60
2023-05-15T23:12:09.903Z,75.31
2023-05-15T23:17:14.269Z,76.02
2023-05-15T23:22:17.192Z,76.19
2023-05-15T23:27:20.141Z,76.41
2023-05-15T23:32:24.491Z,76.37
2023-05-15T23:37:27.424Z,76.72
2023-05-15T23:42:31.189Z,76.53
2023-05-15T23:47:35.611Z,76.86
2023-05-15T23:52:38.517Z,76.77
2023-05-15T23:57:41.457Z,77.31
